createdAt,value
2018-07-26T00:01:48.444Z,8.40
2018-07-26T00:04:17.996Z,7.40
2018-07-26T00:06:47.942Z,8.50
2018-07-26T00:09:21.751Z,7.10
2018-07-26T00:11:55.572Z,9.47
2018-07-26T00:14:30.131Z,10.63
2018-07-26T00:17:04.495Z,7.87
2018-07-26T00:19:38.165Z,8.83
2018-07-26T00:22:11.865Z,6.67
2018-07-26T00:24:45.936Z,7.10
2018-07-26T00:27:19.637Z,7.57
2018-07-26T00:29:52.318Z,6.97
2018-07-26T00:32:26.717Z,7.83
2018-07-26T00:35:00.564Z,8.03
2018-07-26T00:37:33.507Z,8.17
2018-07-26T00:40:07.735Z,7.63
2018-07-26T00:42:40.642Z,7.03
2018-07-26T00:45:14.531Z,7.60
2018-07-26T00:47:44.140Z,8.90
2018-07-26T00:50:19.721Z,8.23
2018-07-26T00:52:53.820Z,7.93
2018-07-26T00:55:27.700Z,7.73
2018-07-26T00:58:01.182Z,7.63
2018-07-26T01:00:35.716Z,8.20
2018-07-26T01:03:05.238Z,7.73
2018-07-26T01:05:34.794Z,8.03
2018-07-26T01:08:04.355Z,8.40
2018-07-26T01:10:33.948Z,7.53
2018-07-26T01:13:03.703Z,8.00
2018-07-26T01:15:33.274Z,7.60
2018-07-26T01:18:02.802Z,7.47
2018-07-26T01:20:32.337Z,9.63
2018-07-26T01:23:01.956Z,10.37
2018-07-26T01:25:31.560Z,8.10
2018-07-26T01:28:01.118Z,7.17
2018-07-26T01:30:30.776Z,8.90
2018-07-26T01:33:00.375Z,8.07
2018-07-26T01:35:29.907Z,8.10
2018-07-26T01:37:59.468Z,8.17
2018-07-26T01:40:29.023Z,7.70
2018-07-26T01:43:09.566Z,7.87
2018-07-26T01:45:39.100Z,8.53
2018-07-26T01:48:08.651Z,8.63
2018-07-26T01:50:38.160Z,8.10
2018-07-26T01:53:07.852Z,9.27
2018-07-26T01:55:37.386Z,8.90
2018-07-26T01:58:06.970Z,8.83
2018-07-26T02:00:36.604Z,11.03
2018-07-26T02:03:06.159Z,9.73
2018-07-26T02:05:35.763Z,9.30
2018-07-26T02:08:05.356Z,8.37
2018-07-26T02:10:34.882Z,7.97
2018-07-26T02:13:04.519Z,7.70
2018-07-26T02:15:34.100Z,7.93
2018-07-26T02:18:03.755Z,9.70
2018-07-26T02:20:33.302Z,8.23
2018-07-26T02:23:02.863Z,7.83
2018-07-26T02:25:32.439Z,7.00
2018-07-26T02:28:02.083Z,8.83
2018-07-26T02:30:31.717Z,7.03
2018-07-26T02:33:01.416Z,8.37
2018-07-26T02:35:31.058Z,7.23
2018-07-26T02:38:00.577Z,7.20
2018-07-26T02:40:30.096Z,7.17
2018-07-26T02:42:59.632Z,7.43
2018-07-26T02:45:29.158Z,6.57
2018-07-26T02:47:58.662Z,8.17
2018-07-26T02:50:28.249Z,7.70
2018-07-26T02:52:57.847Z,8.37
2018-07-26T02:55:27.516Z,7.53
2018-07-26T02:57:57.097Z,8.00
2018-07-26T03:00:26.723Z,7.47
2018-07-26T03:02:56.275Z,10.20
2018-07-26T03:05:25.774Z,9.17
2018-07-26T03:07:55.653Z,10.50
2018-07-26T03:10:25.236Z,8.53
2018-07-26T03:12:54.790Z,7.70
2018-07-26T03:15:24.337Z,8.20
2018-07-26T03:17:53.811Z,7.37
2018-07-26T03:20:23.320Z,7.70
2018-07-26T03:22:52.876Z,8.07
2018-07-26T03:25:22.666Z,7.50
2018-07-26T03:27:52.282Z,7.80
2018-07-26T03:30:21.823Z,8.27
2018-07-26T03:32:51.426Z,8.20
2018-07-26T03:35:20.961Z,7.17
2018-07-26T03:37:50.565Z,7.73
2018-07-26T03:40:20.089Z,8.00
2018-07-26T03:42:49.702Z,9.50
2018-07-26T03:45:19.605Z,6.10
2018-07-26T03:47:49.087Z,8.93
2018-07-26T03:50:18.642Z,9.80
2018-07-26T03:52:48.127Z,7.97
2018-07-26T03:55:17.692Z,10.33
2018-07-26T03:57:47.229Z,8.73
2018-07-26T04:00:16.881Z,9.13
2018-07-26T04:02:46.408Z,8.30
2018-07-26T04:05:16.068Z,8.00
2018-07-26T04:07:45.637Z,8.13
2018-07-26T04:10:15.226Z,9.20
2018-07-26T04:12:44.784Z,6.87
2018-07-26T04:15:14.307Z,8.13
2018-07-26T04:17:43.881Z,8.70
2018-07-26T04:20:13.436Z,7.87
2018-07-26T04:22:42.942Z,8.30
2018-07-26T04:25:12.435Z,7.93
2018-07-26T04:27:42.031Z,10.23
2018-07-26T04:30:11.549Z,8.27
2018-07-26T04:32:41.133Z,8.67
2018-07-26T04:35:10.676Z,6.93
2018-07-26T04:37:39.804Z,7.43
2018-07-26T04:40:09.224Z,7.53
2018-07-26T04:42:39.108Z,6.83
2018-07-26T04:45:08.655Z,7.60
2018-07-26T04:47:38.409Z,8.10
2018-07-26T04:50:08.070Z,9.63
2018-07-26T04:52:37.699Z,14.70
2018-07-26T04:55:07.254Z,11.37
2018-07-26T04:57:37.067Z,18.50
2018-07-26T05:00:07.070Z,15.67
2018-07-26T05:02:36.774Z,10.83
2018-07-26T05:05:06.888Z,14.20
2018-07-26T05:07:36.396Z,11.23
2018-07-26T05:10:05.935Z,9.67
2018-07-26T05:12:35.439Z,12.53
2018-07-26T05:15:06.852Z,9.37
2018-07-26T05:17:36.375Z,11.07
2018-07-26T05:20:06.674Z,8.20
2018-07-26T05:22:36.207Z,9.93
2018-07-26T05:25:05.627Z,10.30
2018-07-26T05:27:35.265Z,7.70
2018-07-26T05:30:05.029Z,7.33
2018-07-26T05:32:34.601Z,9.87
2018-07-26T05:35:04.309Z,9.10
2018-07-26T05:37:33.908Z,7.60
2018-07-26T05:40:03.494Z,6.43
2018-07-26T05:42:33.034Z,6.87
2018-07-26T05:45:02.593Z,8.57
2018-07-26T05:47:32.171Z,7.73
2018-07-26T05:50:01.704Z,7.53
2018-07-26T05:52:30.836Z,6.70
2018-07-26T05:55:00.304Z,6.10
2018-07-26T05:57:29.811Z,5.37
2018-07-26T05:59:59.411Z,6.43
2018-07-26T06:02:28.948Z,9.57
2018-07-26T06:04:58.511Z,5.20
2018-07-26T06:07:28.023Z,4.90
2018-07-26T06:09:57.525Z,5.63
2018-07-26T06:12:27.088Z,6.03
2018-07-26T06:14:56.602Z,4.40
2018-07-26T06:17:26.092Z,5.43
2018-07-26T06:19:55.693Z,5.87
2018-07-26T06:22:25.221Z,7.20
2018-07-26T06:24:54.754Z,6.53
2018-07-26T06:27:24.319Z,4.97
2018-07-26T06:29:53.872Z,4.73
2018-07-26T06:32:23.460Z,4.67
2018-07-26T06:34:53.038Z,7.23
2018-07-26T06:37:22.529Z,5.27
2018-07-26T06:39:52.061Z,8.33
2018-07-26T06:42:21.555Z,5.03
2018-07-26T06:44:51.075Z,5.13
2018-07-26T06:47:20.644Z,4.53
2018-07-26T06:49:50.134Z,5.33
2018-07-26T06:52:19.797Z,6.50
2018-07-26T06:54:49.301Z,7.53
2018-07-26T06:57:18.834Z,7.00
2018-07-26T06:59:48.386Z,6.60
2018-07-26T07:02:17.940Z,5.03
2018-07-26T07:04:47.452Z,8.17
2018-07-26T07:07:17.062Z,3.97
2018-07-26T07:09:46.578Z,5.00
2018-07-26T07:12:16.094Z,4.70
2018-07-26T07:14:45.708Z,6.77
2018-07-26T07:17:15.207Z,4.60
2018-07-26T07:19:44.709Z,5.10
2018-07-26T07:22:14.277Z,6.37
2018-07-26T07:24:43.842Z,6.77
2018-07-26T07:27:13.401Z,6.47
2018-07-26T07:29:42.972Z,4.20
2018-07-26T07:32:12.513Z,4.73
2018-07-26T07:34:42.474Z,4.40
2018-07-26T07:37:12.356Z,4.37
2018-07-26T07:39:41.870Z,6.30
2018-07-26T07:42:11.452Z,4.53
2018-07-26T07:44:40.959Z,5.10
2018-07-26T07:47:10.488Z,5.53
2018-07-26T07:49:40.033Z,4.40
2018-07-26T07:52:09.526Z,7.35
2018-07-26T07:54:39.064Z,4.60
2018-07-26T07:57:08.734Z,4.78
2018-07-26T07:59:38.384Z,4.92
2018-07-26T08:02:07.964Z,4.85
2018-07-26T08:04:38.087Z,4.67
2018-07-26T08:07:07.782Z,5.33
2018-07-26T08:09:37.351Z,6.67
2018-07-26T08:12:07.057Z,4.53
2018-07-26T08:14:37.498Z,3.20
2018-07-26T08:17:06.997Z,4.50
2018-07-26T08:19:36.786Z,3.55
2018-07-26T08:22:06.637Z,6.87
2018-07-26T08:24:36.646Z,3.70
2018-07-26T08:27:06.231Z,4.15
2018-07-26T08:29:35.756Z,2.90
2018-07-26T08:32:05.384Z,3.80
2018-07-26T08:34:34.549Z,4.30
2018-07-26T08:37:04.148Z,4.58
2018-07-26T08:39:33.746Z,5.62
2018-07-26T08:42:03.280Z,4.83
2018-07-26T08:44:32.807Z,5.58
2018-07-26T08:47:02.356Z,8.05
2018-07-26T08:49:31.847Z,6.87
2018-07-26T08:52:01.433Z,3.77
2018-07-26T08:54:30.973Z,4.47
2018-07-26T08:57:00.522Z,4.25
2018-07-26T08:59:30.017Z,7.12
2018-07-26T09:01:59.562Z,4.65
2018-07-26T09:04:29.310Z,5.47
2018-07-26T09:06:58.914Z,5.35
2018-07-26T09:09:28.402Z,5.60
2018-07-26T09:11:57.941Z,6.37
2018-07-26T09:14:27.474Z,5.05
2018-07-26T09:16:56.948Z,4.37
2018-07-26T09:19:26.500Z,4.12
2018-07-26T09:21:56.058Z,3.65
2018-07-26T09:24:25.635Z,3.95
2018-07-26T09:26:55.068Z,5.80
2018-07-26T09:29:24.618Z,4.42
2018-07-26T09:31:54.162Z,3.60
2018-07-26T09:34:23.692Z,5.50
2018-07-26T09:36:53.228Z,5.55
2018-07-26T09:39:22.788Z,3.75
2018-07-26T09:41:52.943Z,5.08
2018-07-26T09:44:22.496Z,4.53
2018-07-26T09:46:52.165Z,6.00
2018-07-26T09:49:23.536Z,4.00
2018-07-26T09:51:53.112Z,5.10
2018-07-26T09:54:22.600Z,4.15
2018-07-26T09:56:51.862Z,2.95
2018-07-26T09:59:21.607Z,5.87
2018-07-26T10:01:51.210Z,3.42
2018-07-26T10:04:20.834Z,4.80
2018-07-26T10:06:50.838Z,4.35
2018-07-26T10:09:20.458Z,3.00
2018-07-26T10:11:50.208Z,3.58
2018-07-26T10:14:20.095Z,4.10
2018-07-26T10:16:49.265Z,4.30
2018-07-26T10:19:18.859Z,8.18
2018-07-26T10:21:48.458Z,4.85
2018-07-26T10:24:17.974Z,3.47
2018-07-26T10:26:47.525Z,4.05
2018-07-26T10:29:17.119Z,3.10
2018-07-26T10:31:46.820Z,4.17
2018-07-26T10:34:16.384Z,4.97
2018-07-26T10:36:45.916Z,3.60
2018-07-26T10:39:15.467Z,4.25
2018-07-26T10:41:45.294Z,3.08
2018-07-26T10:44:14.847Z,3.80
2018-07-26T10:46:44.395Z,5.05
2018-07-26T10:49:13.993Z,4.85
2018-07-26T10:51:43.603Z,3.42
2018-07-26T10:54:13.198Z,4.10
2018-07-26T10:56:42.745Z,4.58
2018-07-26T10:59:12.298Z,3.42
2018-07-26T11:01:42.018Z,4.45
2018-07-26T11:04:12.079Z,4.25
2018-07-26T11:06:42.077Z,4.47
2018-07-26T11:09:11.621Z,5.62
2018-07-26T11:11:41.278Z,3.37
2018-07-26T11:14:10.752Z,5.40
2018-07-26T11:16:40.726Z,3.22
2018-07-26T11:19:10.233Z,3.75
2018-07-26T11:21:39.796Z,5.58
2018-07-26T11:24:09.351Z,3.27
2018-07-26T11:26:39.538Z,3.33
2018-07-26T11:29:09.068Z,4.75
2018-07-26T11:31:38.558Z,5.95
2018-07-26T11:34:08.093Z,3.00
2018-07-26T11:36:37.605Z,2.92
2018-07-26T11:39:10.092Z,4.15
2018-07-26T11:41:39.620Z,3.27
2018-07-26T11:44:09.142Z,4.42
2018-07-26T11:46:38.640Z,3.15
2018-07-26T11:49:09.895Z,3.35
2018-07-26T11:51:39.436Z,4.08
2018-07-26T11:54:09.011Z,3.65
2018-07-26T11:56:38.538Z,3.20
2018-07-26T11:59:08.063Z,3.17
2018-07-26T12:01:37.604Z,2.42
2018-07-26T12:04:07.151Z,2.67
2018-07-26T12:06:36.658Z,3.83
2018-07-26T12:09:08.909Z,3.80
2018-07-26T12:11:38.509Z,3.75
2018-07-26T12:14:08.316Z,3.00
2018-07-26T12:16:37.808Z,3.30
2018-07-26T12:19:07.448Z,5.67
2018-07-26T12:21:36.926Z,3.40
2018-07-26T12:24:06.686Z,3.27
2018-07-26T12:26:36.143Z,4.33
2018-07-26T12:29:05.666Z,5.20
2018-07-26T12:31:35.174Z,6.00
2018-07-26T12:34:04.766Z,4.92
2018-07-26T12:36:34.305Z,3.25
2018-07-26T12:39:04.806Z,2.80
2018-07-26T12:41:34.308Z,3.83
2018-07-26T12:44:03.908Z,4.85
2018-07-26T12:46:33.431Z,3.42
2018-07-26T12:49:03.443Z,4.33
2018-07-26T12:51:33.247Z,3.62
2018-07-26T12:54:02.842Z,4.42
2018-07-26T12:56:32.356Z,3.50
2018-07-26T12:59:01.948Z,3.00
2018-07-26T13:01:31.527Z,3.25
2018-07-26T13:04:01.059Z,4.25
2018-07-26T13:06:30.568Z,4.03
2018-07-26T13:09:00.132Z,4.05
2018-07-26T13:11:29.749Z,3.77
2018-07-26T13:13:59.256Z,4.75
2018-07-26T13:16:28.825Z,4.45
2018-07-26T13:18:58.378Z,3.70
2018-07-26T13:21:28.297Z,4.20
2018-07-26T13:23:57.819Z,3.12
2018-07-26T13:26:27.779Z,3.65
2018-07-26T13:29:01.047Z,3.90
2018-07-26T13:31:30.591Z,4.50
2018-07-26T13:34:00.133Z,4.95
2018-07-26T13:36:29.647Z,3.40
2018-07-26T13:38:59.116Z,3.77
2018-07-26T13:41:28.721Z,3.00
2018-07-26T13:43:59.642Z,3.30
2018-07-26T13:46:29.160Z,3.12
2018-07-26T13:48:58.638Z,4.28
2018-07-26T13:51:29.927Z,4.40
2018-07-26T13:53:59.499Z,3.67
2018-07-26T13:56:29.107Z,3.75
2018-07-26T13:58:59.026Z,4.60
2018-07-26T14:01:28.601Z,2.77
2018-07-26T14:03:58.179Z,3.33
2018-07-26T14:06:27.802Z,6.37
2018-07-26T14:08:57.297Z,5.10
2018-07-26T14:11:26.910Z,5.35
2018-07-26T14:13:56.401Z,4.80
2018-07-26T14:16:26.308Z,4.17
2018-07-26T14:18:56.803Z,3.02
2018-07-26T14:21:30.748Z,5.20
2018-07-26T14:24:03.422Z,2.98
2018-07-26T14:26:33.017Z,4.37
2018-07-26T14:29:02.554Z,3.10
2018-07-26T14:31:32.079Z,4.80
2018-07-26T14:34:01.687Z,3.90
2018-07-26T14:36:31.307Z,2.95
2018-07-26T14:39:00.849Z,4.25
2018-07-26T14:41:30.387Z,3.45
2018-07-26T14:43:59.939Z,3.92
2018-07-26T14:46:29.508Z,2.87
2018-07-26T14:48:59.063Z,4.00
2018-07-26T14:51:28.636Z,5.35
2018-07-26T14:53:58.116Z,3.83
2018-07-26T14:56:27.768Z,3.60
2018-07-26T14:58:57.628Z,3.00
2018-07-26T15:01:27.255Z,3.05
2018-07-26T15:03:56.863Z,5.20
2018-07-26T15:06:26.384Z,4.72
2018-07-26T15:08:56.398Z,3.77
2018-07-26T15:11:25.901Z,4.22
2018-07-26T15:13:55.431Z,3.72
2018-07-26T15:16:24.960Z,3.22
2018-07-26T15:18:54.521Z,3.80
2018-07-26T15:21:24.061Z,3.52
2018-07-26T15:23:53.595Z,3.45
2018-07-26T15:26:27.311Z,3.98
2018-07-26T15:28:56.978Z,3.27
2018-07-26T15:31:26.496Z,6.78
2018-07-26T15:33:56.037Z,3.87
2018-07-26T15:36:25.583Z,4.85
2018-07-26T15:38:54.986Z,4.08
2018-07-26T15:41:24.843Z,3.22
2018-07-26T15:43:54.339Z,3.58
2018-07-26T15:46:23.895Z,3.17
2018-07-26T15:48:53.420Z,3.12
2018-07-26T15:51:22.987Z,3.72
2018-07-26T15:53:52.574Z,4.15
2018-07-26T15:56:22.111Z,3.12
2018-07-26T15:58:51.652Z,3.55
2018-07-26T16:01:21.205Z,4.08
2018-07-26T16:03:50.708Z,3.40
2018-07-26T16:06:20.696Z,2.77
2018-07-26T16:08:50.422Z,3.75
2018-07-26T16:11:19.985Z,3.70
2018-07-26T16:13:49.550Z,3.27
2018-07-26T16:16:19.082Z,4.20
2018-07-26T16:18:48.718Z,4.15
2018-07-26T16:21:18.282Z,4.03
2018-07-26T16:23:48.064Z,3.17
2018-07-26T16:26:17.625Z,2.92
2018-07-26T16:28:47.177Z,3.25
2018-07-26T16:31:16.773Z,2.85
2018-07-26T16:33:46.318Z,3.85
2018-07-26T16:36:15.786Z,3.40
2018-07-26T16:38:45.329Z,3.58
2018-07-26T16:41:14.842Z,2.83
2018-07-26T16:43:44.432Z,3.12
2018-07-26T16:46:14.323Z,4.60
2018-07-26T16:48:43.842Z,3.10
2018-07-26T16:51:13.338Z,4.72
2018-07-26T16:53:42.927Z,3.75
2018-07-26T16:56:12.448Z,3.15
2018-07-26T16:58:42.025Z,3.45
2018-07-26T17:01:11.578Z,4.72
2018-07-26T17:03:41.109Z,3.87
2018-07-26T17:06:10.652Z,3.80
2018-07-26T17:08:45.077Z,6.17
2018-07-26T17:11:14.689Z,5.00
2018-07-26T17:13:58.549Z,4.92
2018-07-26T17:16:39.883Z,4.10
2018-07-26T17:19:13.471Z,6.35
2018-07-26T17:21:43.125Z,3.75
2018-07-26T17:24:14.793Z,2.70
2018-07-26T17:26:44.421Z,3.45
2018-07-26T17:29:14.053Z,2.70
2018-07-26T17:31:43.630Z,3.35
2018-07-26T17:34:14.964Z,5.15
2018-07-26T17:36:44.582Z,2.85
2018-07-26T17:39:16.215Z,3.42
2018-07-26T17:41:45.855Z,4.22
2018-07-26T17:44:17.398Z,3.58
2018-07-26T17:46:47.160Z,3.67
2018-07-26T17:49:18.787Z,3.87
2018-07-26T17:51:50.147Z,3.17
2018-07-26T17:54:21.833Z,2.87
2018-07-26T17:56:55.405Z,5.22
2018-07-26T17:59:24.936Z,3.00
2018-07-26T18:01:54.448Z,2.62
2018-07-26T18:04:24.019Z,3.20
2018-07-26T18:06:53.622Z,3.20
2018-07-26T18:09:23.206Z,3.00
2018-07-26T18:11:52.725Z,3.42
2018-07-26T18:14:22.320Z,3.77
2018-07-26T18:16:51.865Z,3.05
2018-07-26T18:19:21.390Z,4.10
2018-07-26T18:21:50.927Z,3.67
2018-07-26T18:24:20.602Z,4.00
2018-07-26T18:26:50.140Z,3.80
2018-07-26T18:29:19.678Z,3.15
2018-07-26T18:31:49.196Z,3.47
2018-07-26T18:34:18.732Z,3.98
2018-07-26T18:36:48.234Z,3.27
2018-07-26T18:39:17.723Z,4.42
2018-07-26T18:41:47.236Z,3.75
2018-07-26T18:44:16.836Z,3.58
2018-07-26T18:46:46.340Z,3.92
2018-07-26T18:49:15.952Z,4.08
2018-07-26T18:51:45.535Z,4.33
2018-07-26T18:54:15.035Z,4.72
2018-07-26T18:56:44.580Z,4.12
2018-07-26T18:59:14.186Z,3.65
2018-07-26T19:01:43.760Z,4.12
2018-07-26T19:04:13.345Z,3.95
2018-07-26T19:06:42.831Z,3.42
2018-07-26T19:09:13.391Z,5.47
2018-07-26T19:11:43.660Z,3.70
2018-07-26T19:14:13.158Z,3.55
2018-07-26T19:16:42.682Z,4.22
2018-07-26T19:19:12.211Z,4.00
2018-07-26T19:21:41.816Z,3.22
2018-07-26T19:24:11.379Z,3.85
2018-07-26T19:26:40.607Z,4.08
2018-07-26T19:29:10.030Z,5.08
2018-07-26T19:31:39.570Z,4.95
2018-07-26T19:34:09.065Z,3.75
2018-07-26T19:36:38.569Z,3.30
2018-07-26T19:39:10.878Z,4.15
2018-07-26T19:41:40.617Z,3.80
2018-07-26T19:44:10.155Z,4.22
2018-07-26T19:46:39.734Z,3.33
2018-07-26T19:49:09.310Z,3.83
2018-07-26T19:51:38.837Z,3.83
2018-07-26T19:54:22.583Z,4.62
2018-07-26T19:56:53.948Z,4.03
2018-07-26T19:59:26.484Z,4.30
2018-07-26T20:01:56.024Z,4.47
2018-07-26T20:04:25.549Z,5.90
2018-07-26T20:06:55.074Z,4.50
2018-07-26T20:09:24.614Z,4.90
2018-07-26T20:11:54.377Z,3.93
2018-07-26T20:14:23.972Z,4.73
2018-07-26T20:16:53.577Z,3.57
2018-07-26T20:19:23.149Z,5.63
2018-07-26T20:21:52.635Z,5.70
2018-07-26T20:24:22.144Z,8.43
2018-07-26T20:26:53.139Z,6.13
2018-07-26T20:29:22.602Z,9.87
2018-07-26T20:31:52.214Z,6.60
2018-07-26T20:34:21.695Z,4.53
2018-07-26T20:36:51.351Z,5.47
2018-07-26T20:39:20.870Z,5.67
2018-07-26T20:41:50.837Z,3.43
2018-07-26T20:44:20.392Z,5.47
2018-07-26T20:46:53.474Z,3.73
2018-07-26T20:49:23.248Z,4.53
2018-07-26T20:51:52.756Z,5.17
2018-07-26T20:54:22.338Z,5.23
2018-07-26T20:56:51.868Z,6.40
2018-07-26T20:59:25.227Z,4.80
2018-07-26T21:01:58.789Z,5.37
2018-07-26T21:04:28.325Z,4.90
2018-07-26T21:06:57.881Z,5.50
2018-07-26T21:09:27.408Z,6.93
2018-07-26T21:11:56.974Z,3.90
2018-07-26T21:14:26.469Z,5.27
2018-07-26T21:16:55.655Z,7.00
2018-07-26T21:19:25.065Z,6.37
2018-07-26T21:21:54.620Z,5.70
2018-07-26T21:24:24.120Z,5.43
2018-07-26T21:26:53.684Z,3.90
2018-07-26T21:29:27.841Z,3.97
2018-07-26T21:31:57.450Z,4.20
2018-07-26T21:34:26.949Z,4.60
2018-07-26T21:36:57.387Z,3.93
2018-07-26T21:39:26.891Z,3.60
2018-07-26T21:41:56.479Z,5.03
2018-07-26T21:44:25.968Z,3.83
2018-07-26T21:46:55.533Z,3.73
2018-07-26T21:49:25.136Z,4.93
2018-07-26T21:51:55.110Z,6.20
2018-07-26T21:54:24.944Z,5.67
2018-07-26T21:56:54.195Z,5.40
2018-07-26T21:59:23.584Z,10.73
2018-07-26T22:01:53.117Z,3.90
2018-07-26T22:04:22.642Z,4.10
2018-07-26T22:06:52.129Z,4.60
2018-07-26T22:09:21.660Z,4.70
2018-07-26T22:11:51.641Z,4.33
2018-07-26T22:14:21.565Z,6.20
2018-07-26T22:16:51.393Z,5.23
2018-07-26T22:19:20.782Z,4.27
2018-07-26T22:21:50.447Z,6.53
2018-07-26T22:24:19.946Z,6.80
2018-07-26T22:26:49.493Z,5.17
2018-07-26T22:29:18.983Z,4.40
2018-07-26T22:31:48.586Z,7.57
2018-07-26T22:34:18.128Z,4.50
2018-07-26T22:36:47.830Z,5.83
2018-07-26T22:39:17.397Z,7.03
2018-07-26T22:41:47.200Z,6.07
2018-07-26T22:44:16.330Z,5.17
2018-07-26T22:46:46.238Z,6.77
2018-07-26T22:49:16.025Z,5.33
2018-07-26T22:51:45.611Z,5.97
2018-07-26T22:54:15.703Z,4.90
2018-07-26T22:56:45.391Z,4.43
2018-07-26T22:59:15.701Z,6.40
2018-07-26T23:01:46.798Z,4.93
2018-07-26T23:04:17.688Z,4.37
2018-07-26T23:06:48.108Z,5.10
2018-07-26T23:09:17.906Z,6.03
2018-07-26T23:11:47.547Z,5.33
2018-07-26T23:14:24.198Z,4.53
2018-07-26T23:16:58.276Z,5.60
2018-07-26T23:19:32.089Z,7.07
2018-07-26T23:22:04.959Z,7.53
2018-07-26T23:24:37.953Z,7.73
2018-07-26T23:27:09.704Z,10.33
2018-07-26T23:29:39.340Z,5.80
2018-07-26T23:32:08.828Z,5.17
2018-07-26T23:34:38.838Z,6.03
2018-07-26T23:37:08.354Z,5.37
2018-07-26T23:39:37.904Z,6.20
2018-07-26T23:42:07.485Z,8.10
2018-07-26T23:44:36.984Z,4.90
2018-07-26T23:47:06.718Z,6.13
2018-07-26T23:49:36.207Z,6.13
2018-07-26T23:52:05.905Z,6.30
2018-07-26T23:54:35.534Z,5.17
2018-07-26T23:57:05.598Z,5.00
2018-07-26T23:59:35.091Z,4.80
